sensor_id;sensor_type;location;lat;lon;timestamp;temperature;humidity
40151;DHT22;25866;52.420;10.640;2024-02-15T00:01:27;9.90;99.90
40151;DHT22;25866;52.420;10.640;2024-02-15T00:03:53;9.80;99.90
40151;DHT22;25866;52.420;10.640;2024-02-15T00:06:20;9.80;99.90
40151;DHT22;25866;52.420;10.640;2024-02-15T00:08:46;9.80;99.90
40151;DHT22;25866;52.420;10.640;2024-02-15T00:11:12;9.80;99.90
40151;DHT22;25866;52.420;10.640;2024-02-15T00:13:39;9.80;99.90
40151;DHT22;25866;52.420;10.640;2024-02-15T00:16:06;9.90;99.90
40151;DHT22;25866;52.420;10.640;2024-02-15T00:18:32;9.90;99.90
40151;DHT22;25866;52.420;10.640;2024-02-15T00:20:58;9.90;99.90
40151;DHT22;25866;52.420;10.640;2024-02-15T00:23:25;9.90;99.90
40151;DHT22;25866;52.420;10.640;2024-02-15T00:25:55;9.90;99.90
40151;DHT22;25866;52.420;10.640;2024-02-15T00:28:20;9.90;99.90
40151;DHT22;25866;52.420;10.640;2024-02-15T00:30:46;10.00;99.90
40151;DHT22;25866;52.420;10.640;2024-02-15T00:33:13;10.00;99.90
40151;DHT22;25866;52.420;10.640;2024-02-15T00:35:38;10.00;99.90
40151;DHT22;25866;52.420;10.640;2024-02-15T00:38:04;10.00;99.90
40151;DHT22;25866;52.420;10.640;2024-02-15T00:40:32;10.00;99.90
40151;DHT22;25866;52.420;10.640;2024-02-15T00:42:58;10.00;99.90
40151;DHT22;25866;52.420;10.640;2024-02-15T00:45:24;10.10;99.90
40151;DHT22;25866;52.420;10.640;2024-02-15T00:47:51;10.10;99.90
40151;DHT22;25866;52.420;10.640;2024-02-15T00:50:17;10.10;99.90
40151;DHT22;25866;52.420;10.640;2024-02-15T00:52:43;10.10;99.90
40151;DHT22;25866;52.420;10.640;2024-02-15T00:55:08;10.10;99.90
40151;DHT22;25866;52.420;10.640;2024-02-15T00:57:44;10.10;99.90
40151;DHT22;25866;52.420;10.640;2024-02-15T01:00:10;10.10;99.90
40151;DHT22;25866;52.420;10.640;2024-02-15T01:02:35;10.10;99.90
40151;DHT22;25866;52.420;10.640;2024-02-15T01:05:01;10.10;99.90
40151;DHT22;25866;52.420;10.640;2024-02-15T01:07:28;10.10;99.90
40151;DHT22;25866;52.420;10.640;2024-02-15T01:09:54;10.20;99.90
40151;DHT22;25866;52.420;10.640;2024-02-15T01:12:20;10.20;99.90
40151;DHT22;25866;52.420;10.640;2024-02-15T01:14:46;10.10;99.90
40151;DHT22;25866;52.420;10.640;2024-02-15T01:17:17;10.10;99.90
40151;DHT22;25866;52.420;10.640;2024-02-15T01:19:43;10.20;99.90
40151;DHT22;25866;52.420;10.640;2024-02-15T01:22:11;10.20;99.90
40151;DHT22;25866;52.420;10.640;2024-02-15T01:24:38;10.10;99.90
40151;DHT22;25866;52.420;10.640;2024-02-15T01:27:04;10.20;99.90
40151;DHT22;25866;52.420;10.640;2024-02-15T01:29:30;10.20;99.90
40151;DHT22;25866;52.420;10.640;2024-02-15T01:31:55;10.20;99.90
40151;DHT22;25866;52.420;10.640;2024-02-15T01:34:21;10.20;99.90
40151;DHT22;25866;52.420;10.640;2024-02-15T01:36:50;10.20;99.90
40151;DHT22;25866;52.420;10.640;2024-02-15T01:39:16;10.30;99.90
40151;DHT22;25866;52.420;10.640;2024-02-15T01:41:49;10.30;99.90
40151;DHT22;25866;52.420;10.640;2024-02-15T01:44:21;10.30;99.90
40151;DHT22;25866;52.420;10.640;2024-02-15T01:46:50;10.30;99.90
40151;DHT22;25866;52.420;10.640;2024-02-15T01:49:23;10.30;99.90
40151;DHT22;25866;52.420;10.640;2024-02-15T01:51:52;10.30;99.90
40151;DHT22;25866;52.420;10.640;2024-02-15T01:54:18;10.30;99.90
40151;DHT22;25866;52.420;10.640;2024-02-15T01:56:45;10.30;99.90
40151;DHT22;25866;52.420;10.640;2024-02-15T01:59:14;10.30;99.90
40151;DHT22;25866;52.420;10.640;2024-02-15T02:01:41;10.30;99.90
40151;DHT22;25866;52.420;10.640;2024-02-15T02:04:08;10.30;99.90
40151;DHT22;25866;52.420;10.640;2024-02-15T02:06:34;10.30;99.90
40151;DHT22;25866;52.420;10.640;2024-02-15T02:09:03;10.30;99.90
40151;DHT22;25866;52.420;10.640;2024-02-15T02:11:29;10.40;99.90
40151;DHT22;25866;52.420;10.640;2024-02-15T02:13:55;10.30;99.90
40151;DHT22;25866;52.420;10.640;2024-02-15T02:16:28;10.30;99.90
40151;DHT22;25866;52.420;10.640;2024-02-15T02:18:58;10.30;99.90
40151;DHT22;25866;52.420;10.640;2024-02-15T02:21:26;10.30;99.90
40151;DHT22;25866;52.420;10.640;2024-02-15T02:24:03;10.30;99.90
40151;DHT22;25866;52.420;10.640;2024-02-15T02:26:34;10.30;99.90
40151;DHT22;25866;52.420;10.640;2024-02-15T02:29:02;10.30;99.90
40151;DHT22;25866;52.420;10.640;2024-02-15T02:31:36;10.30;99.90
40151;DHT22;25866;52.420;10.640;2024-02-15T02:34:02;10.30;99.90
40151;DHT22;25866;52.420;10.640;2024-02-15T02:36:29;10.30;99.90
40151;DHT22;25866;52.420;10.640;2024-02-15T02:38:55;10.30;99.90
40151;DHT22;25866;52.420;10.640;2024-02-15T02:41:28;10.30;99.90
40151;DHT22;25866;52.420;10.640;2024-02-15T02:43:57;10.30;99.90
40151;DHT22;25866;52.420;10.640;2024-02-15T02:46:23;10.30;99.90
40151;DHT22;25866;52.420;10.640;2024-02-15T02:48:49;10.30;99.90
40151;DHT22;25866;52.420;10.640;2024-02-15T02:51:15;10.30;99.90
40151;DHT22;25866;52.420;10.640;2024-02-15T02:53:41;10.30;99.90
40151;DHT22;25866;52.420;10.640;2024-02-15T02:56:07;10.30;99.90
40151;DHT22;25866;52.420;10.640;2024-02-15T02:58:36;10.30;99.90
40151;DHT22;25866;52.420;10.640;2024-02-15T03:01:02;10.30;99.90
40151;DHT22;25866;52.420;10.640;2024-02-15T03:03:28;10.30;99.90
40151;DHT22;25866;52.420;10.640;2024-02-15T03:05:54;10.30;99.90
40151;DHT22;25866;52.420;10.640;2024-02-15T03:08:20;10.30;99.90
40151;DHT22;25866;52.420;10.640;2024-02-15T03:10:47;10.30;99.90
40151;DHT22;25866;52.420;10.640;2024-02-15T03:13:13;10.30;99.90
40151;DHT22;25866;52.420;10.640;2024-02-15T03:15:39;10.30;99.90
40151;DHT22;25866;52.420;10.640;2024-02-15T03:18:07;10.30;99.90
40151;DHT22;25866;52.420;10.640;2024-02-15T03:20:37;10.30;99.90
40151;DHT22;25866;52.420;10.640;2024-02-15T03:23:03;10.30;99.90
40151;DHT22;25866;52.420;10.640;2024-02-15T03:25:29;10.30;99.90
40151;DHT22;25866;52.420;10.640;2024-02-15T03:27:59;10.30;99.90
40151;DHT22;25866;52.420;10.640;2024-02-15T03:30:30;10.40;99.90
40151;DHT22;25866;52.420;10.640;2024-02-15T03:32:57;10.40;99.90
40151;DHT22;25866;52.420;10.640;2024-02-15T03:35:26;10.40;99.90
40151;DHT22;25866;52.420;10.640;2024-02-15T03:37:52;10.40;99.90
40151;DHT22;25866;52.420;10.640;2024-02-15T03:40:19;10.40;99.90
40151;DHT22;25866;52.420;10.640;2024-02-15T03:42:46;10.40;99.90
40151;DHT22;25866;52.420;10.640;2024-02-15T03:45:18;10.40;99.90
40151;DHT22;25866;52.420;10.640;2024-02-15T03:47:43;10.40;99.90
40151;DHT22;25866;52.420;10.640;2024-02-15T03:50:09;10.40;99.90
40151;DHT22;25866;52.420;10.640;2024-02-15T03:52:36;10.40;99.90
40151;DHT22;25866;52.420;10.640;2024-02-15T03:55:02;10.40;99.90
40151;DHT22;25866;52.420;10.640;2024-02-15T03:57:28;10.40;99.90
40151;DHT22;25866;52.420;10.640;2024-02-15T03:59:55;10.40;99.90
40151;DHT22;25866;52.420;10.640;2024-02-15T04:02:23;10.40;99.90
40151;DHT22;25866;52.420;10.640;2024-02-15T04:04:55;10.40;99.90
40151;DHT22;25866;52.420;10.640;2024-02-15T04:07:24;10.40;99.90
40151;DHT22;25866;52.420;10.640;2024-02-15T04:09:52;10.40;99.90
40151;DHT22;25866;52.420;10.640;2024-02-15T04:12:18;10.40;99.90
40151;DHT22;25866;52.420;10.640;2024-02-15T04:14:44;10.40;99.90
40151;DHT22;25866;52.420;10.640;2024-02-15T04:17:11;10.40;99.90
40151;DHT22;25866;52.420;10.640;2024-02-15T04:19:44;10.40;99.90
40151;DHT22;25866;52.420;10.640;2024-02-15T04:22:12;10.40;99.90
40151;DHT22;25866;52.420;10.640;2024-02-15T04:24:38;10.40;99.90
40151;DHT22;25866;52.420;10.640;2024-02-15T04:27:07;10.40;99.90
40151;DHT22;25866;52.420;10.640;2024-02-15T04:29:43;10.40;99.90
40151;DHT22;25866;52.420;10.640;2024-02-15T04:32:10;10.40;99.90
40151;DHT22;25866;52.420;10.640;2024-02-15T04:34:37;10.40;99.90
40151;DHT22;25866;52.420;10.640;2024-02-15T04:37:03;10.40;99.90
40151;DHT22;25866;52.420;10.640;2024-02-15T04:39:33;10.40;99.90
40151;DHT22;25866;52.420;10.640;2024-02-15T04:41:59;10.40;99.90
40151;DHT22;25866;52.420;10.640;2024-02-15T04:44:25;10.40;99.90
40151;DHT22;25866;52.420;10.640;2024-02-15T04:46:53;10.40;99.90
40151;DHT22;25866;52.420;10.640;2024-02-15T04:49:20;10.40;99.90
40151;DHT22;25866;52.420;10.640;2024-02-15T04:51:46;10.40;99.90
40151;DHT22;25866;52.420;10.640;2024-02-15T04:54:13;10.40;99.90
40151;DHT22;25866;52.420;10.640;2024-02-15T04:56:40;10.40;99.90
40151;DHT22;25866;52.420;10.640;2024-02-15T04:59:07;10.40;99.90
40151;DHT22;25866;52.420;10.640;2024-02-15T05:01:41;10.40;99.90
40151;DHT22;25866;52.420;10.640;2024-02-15T05:04:11;10.40;99.90
40151;DHT22;25866;52.420;10.640;2024-02-15T05:06:38;10.40;99.90
40151;DHT22;25866;52.420;10.640;2024-02-15T05:09:04;10.40;99.90
40151;DHT22;25866;52.420;10.640;2024-02-15T05:11:37;10.40;99.90
40151;DHT22;25866;52.420;10.640;2024-02-15T05:14:07;10.40;99.90
40151;DHT22;25866;52.420;10.640;2024-02-15T05:16:34;10.40;99.90
40151;DHT22;25866;52.420;10.640;2024-02-15T05:19:00;10.40;99.90
40151;DHT22;25866;52.420;10.640;2024-02-15T05:21:27;10.40;99.90
40151;DHT22;25866;52.420;10.640;2024-02-15T05:23:52;10.40;99.90
40151;DHT22;25866;52.420;10.640;2024-02-15T05:26:18;10.40;99.90
40151;DHT22;25866;52.420;10.640;2024-02-15T05:28:52;10.40;99.90
40151;DHT22;25866;52.420;10.640;2024-02-15T05:31:20;10.40;99.90
40151;DHT22;25866;52.420;10.640;2024-02-15T05:33:49;10.40;99.90
40151;DHT22;25866;52.420;10.640;2024-02-15T05:36:16;10.30;99.90
40151;DHT22;25866;52.420;10.640;2024-02-15T05:38:47;10.30;99.90
40151;DHT22;25866;52.420;10.640;2024-02-15T05:41:13;10.40;99.90
40151;DHT22;25866;52.420;10.640;2024-02-15T05:43:39;10.40;99.90
40151;DHT22;25866;52.420;10.640;2024-02-15T05:46:07;10.30;99.90
40151;DHT22;25866;52.420;10.640;2024-02-15T05:48:33;10.30;99.90
40151;DHT22;25866;52.420;10.640;2024-02-15T05:51:05;10.30;99.90
40151;DHT22;25866;52.420;10.640;2024-02-15T05:53:31;10.30;99.90
40151;DHT22;25866;52.420;10.640;2024-02-15T05:56:07;10.30;99.90
40151;DHT22;25866;52.420;10.640;2024-02-15T05:58:38;10.30;99.90
40151;DHT22;25866;52.420;10.640;2024-02-15T06:01:05;10.20;99.90
40151;DHT22;25866;52.420;10.640;2024-02-15T06:03:33;10.30;99.90
40151;DHT22;25866;52.420;10.640;2024-02-15T06:06:02;10.30;99.90
40151;DHT22;25866;52.420;10.640;2024-02-15T06:08:33;10.30;99.90
40151;DHT22;25866;52.420;10.640;2024-02-15T06:10:59;10.30;99.90
40151;DHT22;25866;52.420;10.640;2024-02-15T06:13:25;10.30;99.90
40151;DHT22;25866;52.420;10.640;2024-02-15T06:15:52;10.30;99.90
40151;DHT22;25866;52.420;10.640;2024-02-15T06:18:24;10.30;99.90
40151;DHT22;25866;52.420;10.640;2024-02-15T06:20:53;10.40;99.90
40151;DHT22;25866;52.420;10.640;2024-02-15T06:23:23;10.40;99.90
40151;DHT22;25866;52.420;10.640;2024-02-15T06:25:52;10.40;99.90
40151;DHT22;25866;52.420;10.640;2024-02-15T06:28:22;10.50;99.90
40151;DHT22;25866;52.420;10.640;2024-02-15T06:31:11;10.50;99.90
40151;DHT22;25866;52.420;10.640;2024-02-15T06:33:55;10.50;99.90
40151;DHT22;25866;52.420;10.640;2024-02-15T06:36:47;10.50;99.90
40151;DHT22;25866;52.420;10.640;2024-02-15T06:39:32;10.40;99.90
40151;DHT22;25866;52.420;10.640;2024-02-15T06:42:11;10.50;99.90
40151;DHT22;25866;52.420;10.640;2024-02-15T06:44:40;10.50;99.90
40151;DHT22;25866;52.420;10.640;2024-02-15T06:47:06;10.40;99.90
40151;DHT22;25866;52.420;10.640;2024-02-15T06:49:33;10.50;99.90
40151;DHT22;25866;52.420;10.640;2024-02-15T06:51:59;10.50;99.90
40151;DHT22;25866;52.420;10.640;2024-02-15T06:54:27;10.50;99.90
40151;DHT22;25866;52.420;10.640;2024-02-15T06:56:53;10.50;99.90
40151;DHT22;25866;52.420;10.640;2024-02-15T06:59:20;10.50;99.90
40151;DHT22;25866;52.420;10.640;2024-02-15T07:01:50;10.50;99.90
40151;DHT22;25866;52.420;10.640;2024-02-15T07:04:18;10.50;99.90
40151;DHT22;25866;52.420;10.640;2024-02-15T07:06:44;10.50;99.90
40151;DHT22;25866;52.420;10.640;2024-02-15T07:09:13;10.50;99.90
40151;DHT22;25866;52.420;10.640;2024-02-15T07:11:41;10.50;99.90
40151;DHT22;25866;52.420;10.640;2024-02-15T07:14:06;10.50;99.90
40151;DHT22;25866;52.420;10.640;2024-02-15T07:16:34;10.50;99.90
40151;DHT22;25866;52.420;10.640;2024-02-15T07:19:01;10.60;99.90
40151;DHT22;25866;52.420;10.640;2024-02-15T07:21:28;10.60;99.90
40151;DHT22;25866;52.420;10.640;2024-02-15T07:23:55;10.60;99.90
40151;DHT22;25866;52.420;10.640;2024-02-15T07:26:23;10.60;99.90
40151;DHT22;25866;52.420;10.640;2024-02-15T07:28:54;10.60;99.90
40151;DHT22;25866;52.420;10.640;2024-02-15T07:31:21;10.60;99.90
40151;DHT22;25866;52.420;10.640;2024-02-15T07:33:50;10.60;99.90
40151;DHT22;25866;52.420;10.640;2024-02-15T07:36:23;10.70;99.90
40151;DHT22;25866;52.420;10.640;2024-02-15T07:38:50;10.70;99.90
40151;DHT22;25866;52.420;10.640;2024-02-15T07:41:20;10.70;99.90
40151;DHT22;25866;52.420;10.640;2024-02-15T07:43:48;10.70;99.90
40151;DHT22;25866;52.420;10.640;2024-02-15T07:46:14;10.70;99.90
40151;DHT22;25866;52.420;10.640;2024-02-15T07:48:45;10.70;99.90
40151;DHT22;25866;52.420;10.640;2024-02-15T07:51:15;10.70;99.90
40151;DHT22;25866;52.420;10.640;2024-02-15T07:53:42;10.70;99.90
40151;DHT22;25866;52.420;10.640;2024-02-15T07:56:09;10.70;99.90
40151;DHT22;25866;52.420;10.640;2024-02-15T07:58:47;10.70;99.90
40151;DHT22;25866;52.420;10.640;2024-02-15T08:01:14;10.70;99.90
40151;DHT22;25866;52.420;10.640;2024-02-15T08:03:42;10.80;99.90
40151;DHT22;25866;52.420;10.640;2024-02-15T08:06:12;10.80;99.90
40151;DHT22;25866;52.420;10.640;2024-02-15T08:08:39;10.80;99.90
40151;DHT22;25866;52.420;10.640;2024-02-15T08:11:07;10.90;99.90
40151;DHT22;25866;52.420;10.640;2024-02-15T08:13:47;10.90;99.90
40151;DHT22;25866;52.420;10.640;2024-02-15T08:16:16;10.90;99.90
40151;DHT22;25866;52.420;10.640;2024-02-15T08:18:43;10.90;99.90
40151;DHT22;25866;52.420;10.640;2024-02-15T08:21:09;11.00;99.90
40151;DHT22;25866;52.420;10.640;2024-02-15T08:23:36;11.00;99.90
40151;DHT22;25866;52.420;10.640;2024-02-15T08:26:02;11.00;99.90
40151;DHT22;25866;52.420;10.640;2024-02-15T08:28:28;11.00;99.90
40151;DHT22;25866;52.420;10.640;2024-02-15T08:30:57;11.10;99.90
40151;DHT22;25866;52.420;10.640;2024-02-15T08:33:25;11.10;99.90
40151;DHT22;25866;52.420;10.640;2024-02-15T08:35:54;11.20;99.90
40151;DHT22;25866;52.420;10.640;2024-02-15T08:38:24;11.20;99.90
40151;DHT22;25866;52.420;10.640;2024-02-15T08:40:50;11.10;99.90
40151;DHT22;25866;52.420;10.640;2024-02-15T08:43:17;11.20;99.90
40151;DHT22;25866;52.420;10.640;2024-02-15T08:45:43;11.10;99.90
40151;DHT22;25866;52.420;10.640;2024-02-15T08:48:09;11.10;99.90
40151;DHT22;25866;52.420;10.640;2024-02-15T08:50:34;11.20;99.90
40151;DHT22;25866;52.420;10.640;2024-02-15T08:53:01;11.20;99.90
40151;DHT22;25866;52.420;10.640;2024-02-15T08:55:27;11.30;99.90
40151;DHT22;25866;52.420;10.640;2024-02-15T08:57:53;11.30;99.90
40151;DHT22;25866;52.420;10.640;2024-02-15T09:00:20;11.30;99.90
40151;DHT22;25866;52.420;10.640;2024-02-15T09:02:47;11.40;99.90
40151;DHT22;25866;52.420;10.640;2024-02-15T09:05:14;11.40;99.90
40151;DHT22;25866;52.420;10.640;2024-02-15T09:07:41;11.40;99.90
40151;DHT22;25866;52.420;10.640;2024-02-15T09:10:09;11.50;99.90
40151;DHT22;25866;52.420;10.640;2024-02-15T09:12:38;11.50;99.90
40151;DHT22;25866;52.420;10.640;2024-02-15T09:15:06;11.60;99.90
40151;DHT22;25866;52.420;10.640;2024-02-15T09:17:33;11.60;99.90
40151;DHT22;25866;52.420;10.640;2024-02-15T09:20:06;11.70;99.90
40151;DHT22;25866;52.420;10.640;2024-02-15T09:22:33;11.80;99.90
40151;DHT22;25866;52.420;10.640;2024-02-15T09:24:59;11.80;99.90
40151;DHT22;25866;52.420;10.640;2024-02-15T09:27:24;11.90;99.90
40151;DHT22;25866;52.420;10.640;2024-02-15T09:29:50;11.90;99.90
40151;DHT22;25866;52.420;10.640;2024-02-15T09:32:16;12.00;99.90
40151;DHT22;25866;52.420;10.640;2024-02-15T09:34:41;12.00;99.90
40151;DHT22;25866;52.420;10.640;2024-02-15T09:37:07;12.00;99.90
40151;DHT22;25866;52.420;10.640;2024-02-15T09:39:33;12.10;99.90
40151;DHT22;25866;52.420;10.640;2024-02-15T09:42:00;12.00;99.90
40151;DHT22;25866;52.420;10.640;2024-02-15T09:44:26;12.00;99.90
40151;DHT22;25866;52.420;10.640;2024-02-15T09:47:05;12.10;99.90
40151;DHT22;25866;52.420;10.640;2024-02-15T09:49:38;12.20;99.90
40151;DHT22;25866;52.420;10.640;2024-02-15T09:52:08;12.20;99.90
40151;DHT22;25866;52.420;10.640;2024-02-15T09:54:42;12.20;99.90
40151;DHT22;25866;52.420;10.640;2024-02-15T09:57:11;12.30;99.90
40151;DHT22;25866;52.420;10.640;2024-02-15T09:59:40;12.40;99.90
40151;DHT22;25866;52.420;10.640;2024-02-15T10:02:07;12.40;99.90
40151;DHT22;25866;52.420;10.640;2024-02-15T10:04:39;12.50;99.90
40151;DHT22;25866;52.420;10.640;2024-02-15T10:07:04;12.60;99.90
40151;DHT22;25866;52.420;10.640;2024-02-15T10:09:31;12.60;99.90
40151;DHT22;25866;52.420;10.640;2024-02-15T10:11:59;12.60;99.90
40151;DHT22;25866;52.420;10.640;2024-02-15T10:14:29;12.70;99.90
40151;DHT22;25866;52.420;10.640;2024-02-15T10:16:55;12.80;99.90
40151;DHT22;25866;52.420;10.640;2024-02-15T10:19:22;12.80;99.90
40151;DHT22;25866;52.420;10.640;2024-02-15T10:21:54;12.90;99.90
40151;DHT22;25866;52.420;10.640;2024-02-15T10:24:22;12.90;99.90
40151;DHT22;25866;52.420;10.640;2024-02-15T10:26:50;12.90;99.90
40151;DHT22;25866;52.420;10.640;2024-02-15T10:29:16;12.90;99.90
40151;DHT22;25866;52.420;10.640;2024-02-15T10:32:02;12.90;99.90
40151;DHT22;25866;52.420;10.640;2024-02-15T10:34:28;13.00;99.90
40151;DHT22;25866;52.420;10.640;2024-02-15T10:36:54;13.00;99.90
40151;DHT22;25866;52.420;10.640;2024-02-15T10:39:23;13.00;99.90
40151;DHT22;25866;52.420;10.640;2024-02-15T10:41:53;13.00;99.90
40151;DHT22;25866;52.420;10.640;2024-02-15T10:44:24;13.10;99.90
40151;DHT22;25866;52.420;10.640;2024-02-15T10:46:52;13.10;99.90
40151;DHT22;25866;52.420;10.640;2024-02-15T10:49:25;13.20;99.90
40151;DHT22;25866;52.420;10.640;2024-02-15T10:51:57;13.10;99.90
40151;DHT22;25866;52.420;10.640;2024-02-15T10:54:47;13.20;99.90
40151;DHT22;25866;52.420;10.640;2024-02-15T10:57:20;13.10;99.90
40151;DHT22;25866;52.420;10.640;2024-02-15T10:59:57;13.10;99.90
40151;DHT22;25866;52.420;10.640;2024-02-15T11:02:30;13.20;99.90
40151;DHT22;25866;52.420;10.640;2024-02-15T11:05:02;13.10;99.90
40151;DHT22;25866;52.420;10.640;2024-02-15T11:07:31;13.10;99.90
40151;DHT22;25866;52.420;10.640;2024-02-15T11:09:57;13.00;99.90
40151;DHT22;25866;52.420;10.640;2024-02-15T11:12:25;13.00;99.90
40151;DHT22;25866;52.420;10.640;2024-02-15T11:14:55;12.90;99.90
40151;DHT22;25866;52.420;10.640;2024-02-15T11:23:02;12.90;99.90
40151;DHT22;25866;52.420;10.640;2024-02-15T11:25:35;12.90;99.90
40151;DHT22;25866;52.420;10.640;2024-02-15T11:30:50;13.00;99.90
40151;DHT22;25866;52.420;10.640;2024-02-15T11:33:32;13.00;99.90
40151;DHT22;25866;52.420;10.640;2024-02-15T11:36:12;13.00;99.90
40151;DHT22;25866;52.420;10.640;2024-02-15T11:38:39;13.00;99.90
40151;DHT22;25866;52.420;10.640;2024-02-15T11:41:07;13.00;99.90
40151;DHT22;25866;52.420;10.640;2024-02-15T11:43:58;13.10;99.90
40151;DHT22;25866;52.420;10.640;2024-02-15T11:46:25;13.00;99.90
40151;DHT22;25866;52.420;10.640;2024-02-15T11:48:53;13.10;99.90
40151;DHT22;25866;52.420;10.640;2024-02-15T11:51:42;13.10;99.90
40151;DHT22;25866;52.420;10.640;2024-02-15T11:54:20;13.00;99.90
40151;DHT22;25866;52.420;10.640;2024-02-15T11:56:56;13.00;99.90
40151;DHT22;25866;52.420;10.640;2024-02-15T11:59:42;13.00;99.90
40151;DHT22;25866;52.420;10.640;2024-02-15T12:02:27;13.00;99.90
40151;DHT22;25866;52.420;10.640;2024-02-15T12:05:14;13.00;99.90
40151;DHT22;25866;52.420;10.640;2024-02-15T12:07:58;13.10;99.90
40151;DHT22;25866;52.420;10.640;2024-02-15T12:10:43;13.00;99.90
40151;DHT22;25866;52.420;10.640;2024-02-15T12:13:27;13.00;99.90
40151;DHT22;25866;52.420;10.640;2024-02-15T12:16:15;13.00;99.90
40151;DHT22;25866;52.420;10.640;2024-02-15T12:19:00;12.90;99.90
40151;DHT22;25866;52.420;10.640;2024-02-15T12:21:27;12.80;99.90
40151;DHT22;25866;52.420;10.640;2024-02-15T12:23:53;12.80;99.90
40151;DHT22;25866;52.420;10.640;2024-02-15T12:26:24;12.80;99.90
40151;DHT22;25866;52.420;10.640;2024-02-15T12:28:51;12.70;99.90
40151;DHT22;25866;52.420;10.640;2024-02-15T12:31:20;12.70;99.90
40151;DHT22;25866;52.420;10.640;2024-02-15T12:33:46;12.60;99.90
40151;DHT22;25866;52.420;10.640;2024-02-15T12:36:15;12.60;99.90
40151;DHT22;25866;52.420;10.640;2024-02-15T12:38:42;12.60;99.90
40151;DHT22;25866;52.420;10.640;2024-02-15T12:41:20;12.60;99.90
40151;DHT22;25866;52.420;10.640;2024-02-15T12:43:46;12.50;99.90
40151;DHT22;25866;52.420;10.640;2024-02-15T12:46:21;12.50;99.90
40151;DHT22;25866;52.420;10.640;2024-02-15T12:48:47;12.50;99.90
40151;DHT22;25866;52.420;10.640;2024-02-15T12:51:15;12.40;99.90
40151;DHT22;25866;52.420;10.640;2024-02-15T12:53:42;12.40;99.90
40151;DHT22;25866;52.420;10.640;2024-02-15T12:56:08;12.40;99.90
40151;DHT22;25866;52.420;10.640;2024-02-15T12:58:39;12.40;99.90
40151;DHT22;25866;52.420;10.640;2024-02-15T13:01:06;12.50;99.90
40151;DHT22;25866;52.420;10.640;2024-02-15T13:03:31;12.60;99.90
40151;DHT22;25866;52.420;10.640;2024-02-15T13:06:01;12.60;99.90
40151;DHT22;25866;52.420;10.640;2024-02-15T13:08:27;12.60;99.90
40151;DHT22;25866;52.420;10.640;2024-02-15T13:10:53;12.60;99.90
40151;DHT22;25866;52.420;10.640;2024-02-15T13:13:19;12.70;99.90
40151;DHT22;25866;52.420;10.640;2024-02-15T13:15:52;12.70;99.90
40151;DHT22;25866;52.420;10.640;2024-02-15T13:18:19;12.70;99.90
40151;DHT22;25866;52.420;10.640;2024-02-15T13:20:45;12.60;99.90
40151;DHT22;25866;52.420;10.640;2024-02-15T13:23:11;12.70;99.90
40151;DHT22;25866;52.420;10.640;2024-02-15T13:25:53;12.70;99.90
40151;DHT22;25866;52.420;10.640;2024-02-15T13:28:21;12.70;99.90
40151;DHT22;25866;52.420;10.640;2024-02-15T13:30:46;12.60;99.90
40151;DHT22;25866;52.420;10.640;2024-02-15T13:33:14;12.70;99.90
40151;DHT22;25866;52.420;10.640;2024-02-15T13:35:42;12.70;99.90
40151;DHT22;25866;52.420;10.640;2024-02-15T13:38:08;12.70;99.90
40151;DHT22;25866;52.420;10.640;2024-02-15T13:40:39;12.80;99.90
40151;DHT22;25866;52.420;10.640;2024-02-15T13:43:07;12.80;99.90
40151;DHT22;25866;52.420;10.640;2024-02-15T13:45:41;12.80;99.90
40151;DHT22;25866;52.420;10.640;2024-02-15T13:48:08;12.80;99.90
40151;DHT22;25866;52.420;10.640;2024-02-15T13:50:34;12.90;99.90
40151;DHT22;25866;52.420;10.640;2024-02-15T13:53:01;12.90;99.90
40151;DHT22;25866;52.420;10.640;2024-02-15T13:55:29;12.90;99.90
40151;DHT22;25866;52.420;10.640;2024-02-15T13:57:55;12.90;99.90
40151;DHT22;25866;52.420;10.640;2024-02-15T14:00:26;12.90;99.90
40151;DHT22;25866;52.420;10.640;2024-02-15T14:02:57;12.90;99.90
40151;DHT22;25866;52.420;10.640;2024-02-15T14:05:25;12.90;99.90
40151;DHT22;25866;52.420;10.640;2024-02-15T14:07:55;12.90;99.90
40151;DHT22;25866;52.420;10.640;2024-02-15T14:10:24;12.90;99.90
40151;DHT22;25866;52.420;10.640;2024-02-15T14:12:53;12.80;99.90
40151;DHT22;25866;52.420;10.640;2024-02-15T14:15:24;12.80;99.90
40151;DHT22;25866;52.420;10.640;2024-02-15T14:17:50;12.80;99.90
40151;DHT22;25866;52.420;10.640;2024-02-15T14:20:16;12.80;99.90
40151;DHT22;25866;52.420;10.640;2024-02-15T14:22:49;12.70;99.90
40151;DHT22;25866;52.420;10.640;2024-02-15T14:25:21;12.80;99.90
40151;DHT22;25866;52.420;10.640;2024-02-15T14:27:46;12.80;99.90
40151;DHT22;25866;52.420;10.640;2024-02-15T14:30:15;12.80;99.90
40151;DHT22;25866;52.420;10.640;2024-02-15T14:32:59;12.80;99.90
40151;DHT22;25866;52.420;10.640;2024-02-15T14:35:26;12.80;99.90
40151;DHT22;25866;52.420;10.640;2024-02-15T14:37:52;12.80;99.90
40151;DHT22;25866;52.420;10.640;2024-02-15T14:40:17;12.80;99.90
40151;DHT22;25866;52.420;10.640;2024-02-15T14:42:44;12.80;99.90
40151;DHT22;25866;52.420;10.640;2024-02-15T14:45:11;12.80;99.90
40151;DHT22;25866;52.420;10.640;2024-02-15T14:47:38;12.80;99.90
40151;DHT22;25866;52.420;10.640;2024-02-15T14:50:04;12.80;99.90
40151;DHT22;25866;52.420;10.640;2024-02-15T14:52:39;12.80;99.90
40151;DHT22;25866;52.420;10.640;2024-02-15T14:55:04;12.80;99.90
40151;DHT22;25866;52.420;10.640;2024-02-15T14:57:33;12.80;99.90
40151;DHT22;25866;52.420;10.640;2024-02-15T15:00:00;12.80;99.90
40151;DHT22;25866;52.420;10.640;2024-02-15T15:02:26;12.80;99.90
40151;DHT22;25866;52.420;10.640;2024-02-15T15:04:52;12.80;99.90
40151;DHT22;25866;52.420;10.640;2024-02-15T15:07:38;12.80;99.90
40151;DHT22;25866;52.420;10.640;2024-02-15T15:10:22;12.80;99.90
40151;DHT22;25866;52.420;10.640;2024-02-15T15:13:07;12.80;99.90
40151;DHT22;25866;52.420;10.640;2024-02-15T15:15:33;12.90;99.90
40151;DHT22;25866;52.420;10.640;2024-02-15T15:17:59;12.90;99.90
40151;DHT22;25866;52.420;10.640;2024-02-15T15:20:24;12.80;99.90
40151;DHT22;25866;52.420;10.640;2024-02-15T15:22:51;12.80;99.90
40151;DHT22;25866;52.420;10.640;2024-02-15T15:25:17;12.80;99.90
40151;DHT22;25866;52.420;10.640;2024-02-15T15:27:43;12.80;99.90
40151;DHT22;25866;52.420;10.640;2024-02-15T15:30:09;12.80;99.90
40151;DHT22;25866;52.420;10.640;2024-02-15T15:32:39;12.80;99.90
40151;DHT22;25866;52.420;10.640;2024-02-15T15:35:05;12.70;99.90
40151;DHT22;25866;52.420;10.640;2024-02-15T15:37:41;12.70;99.90